LIMC/MXP METAR and TAF weather

Enter ICAO airport designator
Station Type Date Time Source
LIMC METAR 2021/03/01 10:50 UTC NOAA

LIMC 011050Z VRB02KT CAVOK 13/00 Q1031 NOSIG


Station Type Date Time Source
LIMC Decoded METAR 2021/03/01 10:50 UTC NOAA

Milano / Malpensa, Italy (LIMC) 45-37N 008-44E 211M
Mar 01, 2021 - 05:50 AM EST / 2021.03.01 1050 UTC
Wind: Variable at 2 MPH (2 KT):0
Visibility: greater than 7 mile(s):0
Temperature: 55 F (13 C)
Dew Point: 32 F (0 C)
Relative Humidity: 40%
Pressure (altimeter): 30.45 in. Hg (1031 hPa)
ob: LIMC 011050Z VRB02KT CAVOK 13/00 Q1031 NOSIG
cycle: 11

Station Type Date Time Source
LIMC TAF 2021/03/01 06:21 UTC NOAA

TAF LIMC 010500Z 0106/0212 VRB05KT 8000 NSC

Example: see airport list